createdAt,value
2018-04-10T00:00:18.154Z,11.10
2018-04-10T00:00:51.428Z,9.52
2018-04-10T00:01:24.704Z,10.23
2018-04-10T00:01:57.997Z,10.48
2018-04-10T00:02:31.276Z,10.57
2018-04-10T00:03:04.568Z,9.98
2018-04-10T00:03:37.956Z,10.52
2018-04-10T00:04:11.229Z,11.77
2018-04-10T00:04:45.272Z,10.63
2018-04-10T00:05:18.547Z,9.57
2018-04-10T00:05:51.848Z,9.40
2018-04-10T00:06:25.119Z,8.90
2018-04-10T00:06:58.418Z,11.00
2018-04-10T00:07:32.452Z,10.32
2018-04-10T00:08:05.712Z,10.23
2018-04-10T00:08:39.002Z,11.07
2018-04-10T00:09:12.278Z,10.20
2018-04-10T00:09:45.538Z,9.75
2018-04-10T00:10:19.595Z,10.10
2018-04-10T00:10:52.932Z,10.30
2018-04-10T00:11:26.201Z,10.57
2018-04-10T00:12:00.260Z,10.02
2018-04-10T00:12:33.549Z,11.23
2018-04-10T00:13:06.836Z,10.80
2018-04-10T00:13:40.099Z,10.48
2018-04-10T00:14:13.371Z,9.75
2018-04-10T00:14:47.404Z,9.55
2018-04-10T00:15:20.679Z,10.45
2018-04-10T00:15:53.960Z,10.85
2018-04-10T00:16:27.227Z,10.70
2018-04-10T00:17:00.516Z,10.80
2018-04-10T00:17:33.827Z,11.48
2018-04-10T00:18:07.104Z,11.27
2018-04-10T00:18:41.127Z,11.88
2018-04-10T00:19:14.401Z,11.15
2018-04-10T00:19:47.673Z,11.02
2018-04-10T00:20:20.977Z,12.77
2018-04-10T00:20:54.233Z,11.52
2018-04-10T00:21:27.514Z,11.82
2018-04-10T00:22:00.783Z,11.48
2018-04-10T00:22:34.848Z,11.75
2018-04-10T00:23:08.127Z,13.02
2018-04-10T00:23:41.396Z,11.98
2018-04-10T00:24:14.740Z,12.20
2018-04-10T00:24:48.028Z,11.45
2018-04-10T00:25:21.332Z,9.85
2018-04-10T00:25:54.629Z,11.05
2018-04-10T00:26:27.909Z,11.50
2018-04-10T00:27:02.704Z,11.32
2018-04-10T00:27:35.987Z,11.48
2018-04-10T00:28:09.281Z,12.02
2018-04-10T00:28:42.616Z,12.02
2018-04-10T00:29:16.140Z,12.13
2018-04-10T00:29:49.406Z,11.02
2018-04-10T00:30:22.675Z,11.20
2018-04-10T00:30:55.971Z,12.45
2018-04-10T00:31:29.243Z,12.13
2018-04-10T00:32:02.523Z,10.45
2018-04-10T00:32:35.823Z,10.95
2018-04-10T00:33:09.088Z,11.38
2018-04-10T00:33:42.356Z,11.68
2018-04-10T00:34:15.623Z,10.88
2018-04-10T00:34:48.894Z,11.73
2018-04-10T00:35:22.180Z,11.25
2018-04-10T00:35:55.451Z,11.68
2018-04-10T00:36:28.718Z,11.80
2018-04-10T00:37:02.752Z,11.20
2018-04-10T00:37:36.040Z,11.75
2018-04-10T00:38:10.080Z,10.45
2018-04-10T00:38:43.359Z,11.32
2018-04-10T00:39:16.632Z,11.95
2018-04-10T00:39:49.913Z,11.20
2018-04-10T00:40:23.190Z,11.10
2018-04-10T00:40:56.480Z,11.88
2018-04-10T00:41:29.796Z,10.90
2018-04-10T00:42:03.070Z,11.12
2018-04-10T00:42:36.358Z,11.93
2018-04-10T00:43:09.647Z,11.73
2018-04-10T00:43:42.924Z,11.70
2018-04-10T00:44:16.192Z,11.30
2018-04-10T00:44:49.471Z,11.27
2018-04-10T00:45:23.492Z,11.18
2018-04-10T00:45:56.764Z,10.85
2018-04-10T00:46:30.039Z,11.65
2018-04-10T00:47:04.086Z,11.55
2018-04-10T00:47:37.379Z,12.07
2018-04-10T00:48:10.660Z,11.38
2018-04-10T00:48:43.941Z,11.88
2018-04-10T00:49:17.238Z,10.57
2018-04-10T00:49:50.513Z,10.50
2018-04-10T00:50:24.548Z,10.10
2018-04-10T00:50:57.821Z,10.75
2018-04-10T00:51:31.090Z,10.55
2018-04-10T00:52:04.372Z,11.07
2018-04-10T00:52:37.683Z,10.68
2018-04-10T00:53:22.995Z,10.95
2018-04-10T00:53:56.272Z,10.10
2018-04-10T00:54:30.323Z,10.77
2018-04-10T00:55:03.607Z,11.15
2018-04-10T00:55:36.872Z,10.65
2018-04-10T00:56:10.920Z,10.20
2018-04-10T00:56:44.192Z,11.70
2018-04-10T00:57:17.472Z,11.18
2018-04-10T00:57:50.740Z,11.68
2018-04-10T00:58:24.041Z,11.73
2018-04-10T00:58:57.311Z,11.38
2018-04-10T00:59:30.595Z,11.02
2018-04-10T01:00:03.919Z,11.32
2018-04-10T01:00:37.192Z,10.70
2018-04-10T01:01:10.471Z,10.63
2018-04-10T01:01:44.003Z,10.52
2018-04-10T01:02:17.233Z,9.85
2018-04-10T01:02:50.519Z,10.95
2018-04-10T01:03:23.797Z,10.23
2018-04-10T01:03:57.073Z,11.25
2018-04-10T01:04:31.119Z,10.15
2018-04-10T01:05:04.399Z,11.32
2018-04-10T01:05:37.684Z,10.65
2018-04-10T01:06:11.708Z,11.55
2018-04-10T01:06:45.750Z,11.52
2018-04-10T01:07:19.023Z,11.88
2018-04-10T01:07:52.326Z,11.12
2018-04-10T01:08:25.588Z,11.18
2018-04-10T01:08:58.852Z,11.12
2018-04-10T01:09:32.120Z,11.10
2018-04-10T01:10:06.189Z,10.68
2018-04-10T01:10:39.471Z,10.68
2018-04-10T01:11:12.729Z,10.43
2018-04-10T01:11:45.992Z,11.38
2018-04-10T01:12:19.283Z,11.43
2018-04-10T01:12:52.564Z,10.80
2018-04-10T01:13:25.944Z,10.88
2018-04-10T01:13:59.204Z,11.90
2018-04-10T01:14:32.471Z,11.43
2018-04-10T01:15:05.752Z,12.20
2018-04-10T01:15:39.027Z,10.73
2018-04-10T01:16:13.070Z,10.68
2018-04-10T01:16:46.348Z,10.85
2018-04-10T01:17:19.628Z,11.27
2018-04-10T01:17:52.898Z,10.95
2018-04-10T01:18:26.197Z,10.52
2018-04-10T01:18:59.481Z,11.07
2018-04-10T01:19:32.740Z,12.43
2018-04-10T01:20:06.783Z,13.07
2018-04-10T01:20:40.052Z,10.20
2018-04-10T01:21:13.321Z,11.07
2018-04-10T01:21:46.599Z,11.43
2018-04-10T01:22:19.867Z,11.50
2018-04-10T01:22:53.160Z,12.75
2018-04-10T01:23:26.420Z,11.48
2018-04-10T01:23:59.683Z,11.30
2018-04-10T01:24:32.963Z,11.15
2018-04-10T01:25:06.244Z,11.45
2018-04-10T01:25:39.511Z,10.57
2018-04-10T01:26:12.783Z,10.57
2018-04-10T01:26:46.051Z,11.48
2018-04-10T01:27:20.087Z,10.88
2018-04-10T01:27:53.368Z,11.10
2018-04-10T01:28:26.652Z,10.93
2018-04-10T01:28:59.927Z,10.68
2018-04-10T01:29:33.197Z,11.38
2018-04-10T01:30:06.487Z,12.00
2018-04-10T01:30:39.847Z,11.52
2018-04-10T01:31:13.138Z,12.23
2018-04-10T01:31:46.403Z,13.38
2018-04-10T01:32:19.692Z,12.68
2018-04-10T01:32:52.967Z,11.57
2018-04-10T01:33:26.259Z,12.48
2018-04-10T01:33:59.527Z,11.57
2018-04-10T01:34:33.001Z,13.23
2018-04-10T01:35:07.048Z,12.93
2018-04-10T01:35:40.316Z,13.52
2018-04-10T01:36:13.591Z,12.65
2018-04-10T01:36:46.868Z,11.98
2018-04-10T01:37:20.138Z,11.80
2018-04-10T01:37:53.412Z,12.32
2018-04-10T01:38:26.696Z,11.68
2018-04-10T01:38:59.975Z,12.65
2018-04-10T01:39:33.376Z,13.05
2018-04-10T01:40:06.636Z,13.38
2018-04-10T01:40:40.676Z,13.32
2018-04-10T01:41:13.930Z,12.10
2018-04-10T01:41:47.207Z,12.55
2018-04-10T01:42:20.491Z,12.40
2018-04-10T01:42:53.767Z,12.75
2018-04-10T01:43:27.054Z,12.40
2018-04-10T01:44:00.319Z,11.73
2018-04-10T01:44:33.604Z,12.07
2018-04-10T01:45:06.880Z,13.10
2018-04-10T01:45:40.183Z,12.93
2018-04-10T01:46:13.460Z,12.55
2018-04-10T01:46:46.758Z,12.00
2018-04-10T01:47:20.018Z,12.60
2018-04-10T01:47:54.073Z,12.60
2018-04-10T01:48:27.357Z,12.88
2018-04-10T01:49:01.394Z,12.35
2018-04-10T01:49:34.652Z,11.40
2018-04-10T01:50:07.927Z,11.43
2018-04-10T01:50:41.199Z,13.10
2018-04-10T01:51:14.480Z,13.13
2018-04-10T01:51:48.520Z,12.35
2018-04-10T01:52:21.811Z,12.57
2018-04-10T01:52:55.088Z,12.68
2018-04-10T01:53:28.384Z,12.60
2018-04-10T01:54:01.677Z,12.15
2018-04-10T01:54:34.936Z,12.80
2018-04-10T01:55:08.212Z,13.30
2018-04-10T01:55:41.504Z,11.98
2018-04-10T01:56:14.767Z,11.85
2018-04-10T01:56:48.053Z,12.27
2018-04-10T01:57:21.320Z,12.40
2018-04-10T01:57:54.587Z,12.25
2018-04-10T01:58:27.871Z,12.80
2018-04-10T01:59:01.269Z,12.65
2018-04-10T01:59:34.559Z,11.02
2018-04-10T02:00:07.827Z,11.85
2018-04-10T02:00:41.108Z,11.38
2018-04-10T02:01:14.376Z,13.25
2018-04-10T02:01:47.661Z,11.90
2018-04-10T02:02:20.939Z,12.07
2018-04-10T02:02:54.200Z,12.32
2018-04-10T02:03:27.484Z,12.40
2018-04-10T02:04:00.896Z,12.73
2018-04-10T02:04:34.387Z,13.52
2018-04-10T02:05:07.659Z,13.57
2018-04-10T02:05:40.927Z,11.85
2018-04-10T02:06:14.211Z,11.52
2018-04-10T02:06:47.473Z,12.63
2018-04-10T02:07:20.735Z,12.23
2018-04-10T02:07:54.773Z,12.35
2018-04-10T02:08:28.062Z,12.60
2018-04-10T02:09:01.339Z,12.45
2018-04-10T02:09:34.615Z,13.20
2018-04-10T02:10:07.886Z,12.52
2018-04-10T02:10:41.152Z,12.15
2018-04-10T02:11:14.420Z,12.60
2018-04-10T02:11:47.702Z,11.95
2018-04-10T02:12:20.968Z,12.30
2018-04-10T02:12:55.015Z,12.07
2018-04-10T02:13:28.289Z,12.60
2018-04-10T02:14:01.676Z,11.75
2018-04-10T02:14:34.953Z,11.45
2018-04-10T02:15:08.219Z,12.37
2018-04-10T02:15:41.492Z,11.75
2018-04-10T02:16:14.789Z,12.73
2018-04-10T02:16:48.043Z,12.75
2018-04-10T02:17:21.339Z,13.55
2018-04-10T02:17:54.780Z,12.13
2018-04-10T02:18:28.051Z,11.88
2018-04-10T02:19:01.344Z,12.13
2018-04-10T02:19:34.624Z,11.57
2018-04-10T02:20:07.913Z,12.43
2018-04-10T02:20:41.954Z,12.63
2018-04-10T02:21:15.231Z,12.07
2018-04-10T02:21:48.499Z,13.70
2018-04-10T02:22:21.774Z,13.07
2018-04-10T02:22:55.073Z,12.50
2018-04-10T02:23:28.343Z,13.10
2018-04-10T02:24:01.621Z,12.18
2018-04-10T02:24:35.047Z,13.35
2018-04-10T02:25:08.367Z,13.15
2018-04-10T02:25:42.349Z,12.23
2018-04-10T02:26:16.399Z,13.43
2018-04-10T02:26:49.755Z,12.23
2018-04-10T02:27:23.145Z,12.48
2018-04-10T02:27:56.403Z,12.13
2018-04-10T02:28:29.684Z,11.30
2018-04-10T02:29:03.726Z,12.75
2018-04-10T02:29:37.012Z,12.73
2018-04-10T02:30:10.279Z,12.15
2018-04-10T02:30:43.539Z,13.05
2018-04-10T02:31:16.817Z,12.55
2018-04-10T02:31:50.092Z,12.07
2018-04-10T02:32:23.374Z,12.57
2018-04-10T02:32:56.642Z,12.93
2018-04-10T02:33:30.688Z,12.60
2018-04-10T02:34:03.972Z,12.68
2018-04-10T02:34:37.581Z,12.57
2018-04-10T02:35:10.856Z,13.88
2018-04-10T02:35:44.905Z,13.10
2018-04-10T02:36:18.174Z,12.57
2018-04-10T02:36:51.469Z,12.57
2018-04-10T02:37:24.740Z,13.57
2018-04-10T02:37:58.132Z,12.40
2018-04-10T02:38:31.419Z,12.52
2018-04-10T02:39:04.803Z,12.93
2018-04-10T02:39:38.085Z,12.50
2018-04-10T02:40:11.376Z,13.00
2018-04-10T02:40:44.641Z,13.18
2018-04-10T02:41:17.931Z,11.52
2018-04-10T02:41:51.228Z,12.75
2018-04-10T02:42:24.491Z,12.70
2018-04-10T02:42:57.767Z,13.02
2018-04-10T02:43:31.053Z,12.73
2018-04-10T02:44:04.324Z,12.98
2018-04-10T02:44:37.597Z,11.77
2018-04-10T02:45:10.879Z,12.23
2018-04-10T02:45:44.150Z,13.07
2018-04-10T02:46:17.418Z,13.55
2018-04-10T02:46:50.684Z,12.57
2018-04-10T02:47:24.724Z,13.05
2018-04-10T02:47:58.001Z,13.25
2018-04-10T02:48:31.272Z,13.27
2018-04-10T02:49:04.544Z,12.65
2018-04-10T02:49:37.820Z,13.18
2018-04-10T02:50:11.100Z,12.75
2018-04-10T02:50:44.378Z,12.63
2018-04-10T02:51:18.409Z,13.77
2018-04-10T02:51:51.679Z,13.62
2018-04-10T02:52:24.942Z,12.25
2018-04-10T02:52:58.208Z,13.45
2018-04-10T02:53:32.240Z,12.82
2018-04-10T02:54:05.504Z,13.15
2018-04-10T02:54:38.774Z,12.37
2018-04-10T02:55:12.058Z,11.90
2018-04-10T02:55:45.336Z,13.57
2018-04-10T02:56:18.618Z,12.68
2018-04-10T02:56:52.680Z,12.35
2018-04-10T02:57:25.960Z,12.95
2018-04-10T02:57:59.239Z,13.30
2018-04-10T02:58:32.570Z,12.10
2018-04-10T02:59:05.840Z,12.57
2018-04-10T02:59:39.106Z,12.98
2018-04-10T03:00:13.174Z,11.77
2018-04-10T03:00:46.451Z,12.20
2018-04-10T03:01:19.733Z,12.35
2018-04-10T03:01:53.009Z,12.43
2018-04-10T03:02:26.589Z,11.75
2018-04-10T03:02:59.880Z,12.70
2018-04-10T03:03:33.140Z,11.38
2018-04-10T03:04:06.416Z,11.55
2018-04-10T03:04:39.684Z,11.77
2018-04-10T03:05:12.976Z,12.15
2018-04-10T03:05:46.247Z,12.13
2018-04-10T03:06:19.528Z,11.63
2018-04-10T03:06:52.804Z,10.48
2018-04-10T03:07:26.088Z,11.18
2018-04-10T03:07:59.353Z,10.52
2018-04-10T03:08:32.621Z,11.40
2018-04-10T03:09:06.657Z,11.10
2018-04-10T03:09:39.933Z,11.55
2018-04-10T03:10:13.208Z,11.50
2018-04-10T03:10:46.499Z,11.23
2018-04-10T03:11:19.788Z,11.35
2018-04-10T03:11:53.048Z,11.73
2018-04-10T03:12:26.321Z,11.48
2018-04-10T03:12:59.601Z,10.98
2018-04-10T03:13:32.868Z,11.48
2018-04-10T03:14:06.145Z,10.55
2018-04-10T03:14:40.171Z,12.25
2018-04-10T03:15:13.439Z,11.30
2018-04-10T03:15:46.741Z,11.75
2018-04-10T03:16:20.016Z,10.98
2018-04-10T03:16:53.282Z,11.88
2018-04-10T03:17:26.563Z,11.90
2018-04-10T03:17:59.838Z,11.38
2018-04-10T03:18:33.127Z,11.10
2018-04-10T03:19:06.408Z,12.68
2018-04-10T03:19:39.673Z,11.80
2018-04-10T03:20:12.956Z,12.82
2018-04-10T03:20:46.252Z,12.63
2018-04-10T03:21:19.504Z,11.02
2018-04-10T03:21:52.775Z,11.63
2018-04-10T03:22:26.824Z,11.52
2018-04-10T03:23:00.092Z,12.32
2018-04-10T03:23:33.365Z,12.48
2018-04-10T03:24:06.638Z,11.98
2018-04-10T03:24:39.911Z,11.65
2018-04-10T03:25:13.187Z,12.43
2018-04-10T03:25:46.472Z,12.50
2018-04-10T03:26:19.749Z,12.57
2018-04-10T03:26:53.017Z,13.52
2018-04-10T03:27:27.059Z,13.65
2018-04-10T03:28:00.327Z,12.93
2018-04-10T03:28:33.600Z,12.88
2018-04-10T03:29:06.863Z,11.98
2018-04-10T03:29:40.151Z,13.05
2018-04-10T03:30:13.428Z,12.50
2018-04-10T03:30:46.725Z,13.27
2018-04-10T03:31:20.018Z,13.82
2018-04-10T03:31:53.279Z,13.23
2018-04-10T03:32:26.795Z,14.07
2018-04-10T03:33:00.067Z,13.05
2018-04-10T03:33:33.341Z,12.07
2018-04-10T03:34:06.600Z,12.93
2018-04-10T03:34:39.874Z,13.88
2018-04-10T03:35:13.141Z,12.93
2018-04-10T03:35:47.193Z,13.40
2018-04-10T03:36:20.500Z,13.95
2018-04-10T03:36:53.770Z,13.00
2018-04-10T03:37:27.041Z,13.20
2018-04-10T03:38:00.304Z,14.50
2018-04-10T03:38:33.570Z,13.95
2018-04-10T03:39:07.775Z,14.63
2018-04-10T03:39:41.056Z,14.35
2018-04-10T03:40:14.339Z,13.62
2018-04-10T03:40:47.619Z,14.05
2018-04-10T03:41:20.913Z,14.30
2018-04-10T03:41:54.184Z,13.95
2018-04-10T03:42:27.466Z,13.80
2018-04-10T03:43:00.723Z,13.10
2018-04-10T03:43:33.993Z,13.10
2018-04-10T03:44:07.265Z,13.48
2018-04-10T03:44:41.304Z,13.95
2018-04-10T03:45:14.573Z,15.38
2018-04-10T03:45:47.840Z,15.10
2018-04-10T03:46:21.138Z,14.38
2018-04-10T03:46:54.417Z,15.00
2018-04-10T03:47:27.691Z,15.13
2018-04-10T03:48:00.959Z,14.32
2018-04-10T03:48:34.232Z,13.30
2018-04-10T03:49:07.524Z,14.73
2018-04-10T03:49:40.782Z,14.45
2018-04-10T03:50:14.063Z,13.48
2018-04-10T03:50:48.100Z,14.02
2018-04-10T03:51:21.383Z,14.07
2018-04-10T03:51:54.677Z,15.45
2018-04-10T03:52:27.940Z,13.93
2018-04-10T03:53:01.230Z,14.48
2018-04-10T03:53:34.495Z,15.30
2018-04-10T03:54:07.780Z,14.65
2018-04-10T03:54:41.056Z,14.05
2018-04-10T03:55:14.335Z,14.30
2018-04-10T03:55:48.407Z,13.88
2018-04-10T03:56:22.435Z,13.85
2018-04-10T03:56:55.727Z,12.85
2018-04-10T03:57:29.001Z,12.73
2018-04-10T03:58:02.267Z,13.75
2018-04-10T03:58:35.532Z,13.88
2018-04-10T03:59:08.804Z,13.60
2018-04-10T03:59:42.089Z,13.27
2018-04-10T04:00:15.360Z,14.02
2018-04-10T04:00:48.647Z,14.35
2018-04-10T04:01:21.917Z,13.60
2018-04-10T04:01:55.972Z,14.48
2018-04-10T04:02:29.332Z,13.20
2018-04-10T04:03:02.607Z,13.25
2018-04-10T04:03:35.873Z,13.38
2018-04-10T04:04:09.151Z,14.10
2018-04-10T04:04:42.420Z,14.40
2018-04-10T04:05:15.698Z,15.18
2018-04-10T04:05:48.954Z,14.15
2018-04-10T04:06:22.233Z,14.23
2018-04-10T04:06:55.588Z,14.63
2018-04-10T04:07:28.880Z,13.93
2018-04-10T04:08:02.456Z,15.27
2018-04-10T04:08:35.744Z,14.50
2018-04-10T04:09:09.020Z,15.40
2018-04-10T04:09:42.291Z,14.55
2018-04-10T04:10:15.598Z,13.18
2018-04-10T04:10:48.875Z,15.00
2018-04-10T04:11:22.154Z,14.80
2018-04-10T04:11:55.454Z,14.68
2018-04-10T04:12:29.507Z,16.83
2018-04-10T04:13:02.759Z,14.95
2018-04-10T04:13:36.048Z,16.12
2018-04-10T04:14:09.344Z,14.63
2018-04-10T04:14:42.725Z,15.18
2018-04-10T04:15:15.984Z,17.48
2018-04-10T04:15:49.249Z,18.60
2018-04-10T04:16:35.209Z,17.50
2018-04-10T04:17:20.373Z,15.40
2018-04-10T04:17:54.411Z,16.70
2018-04-10T04:18:39.604Z,15.50
2018-04-10T04:19:24.918Z,16.65
2018-04-10T04:20:10.748Z,16.87
2018-04-10T04:20:55.828Z,18.45
2018-04-10T04:21:42.090Z,16.67
2018-04-10T04:22:27.151Z,15.57
2018-04-10T04:23:00.426Z,17.83
2018-04-10T04:23:33.703Z,17.95
2018-04-10T04:24:06.986Z,19.20
2018-04-10T04:24:40.252Z,17.62
2018-04-10T04:25:14.288Z,17.92
2018-04-10T04:25:48.326Z,18.62
2018-04-10T04:26:21.591Z,16.10
2018-04-10T04:26:54.852Z,17.60
2018-04-10T04:27:28.903Z,17.42
2018-04-10T04:28:02.180Z,15.10
2018-04-10T04:28:35.459Z,16.42
2018-04-10T04:29:08.727Z,16.62
2018-04-10T04:29:41.995Z,16.58
2018-04-10T04:30:15.268Z,17.75
2018-04-10T04:30:48.543Z,19.02
2018-04-10T04:31:21.812Z,16.15
2018-04-10T04:31:55.121Z,16.27
2018-04-10T04:32:29.143Z,15.18
2018-04-10T04:33:02.415Z,17.17
2018-04-10T04:33:35.691Z,17.90
2018-04-10T04:34:08.961Z,17.33
2018-04-10T04:34:42.246Z,16.15
2018-04-10T04:35:15.528Z,16.55
2018-04-10T04:35:48.798Z,17.85
2018-04-10T04:36:22.059Z,18.23
2018-04-10T04:36:55.331Z,16.98
2018-04-10T04:37:28.620Z,18.75
2018-04-10T04:38:01.881Z,18.62
2018-04-10T04:38:35.927Z,18.65
2018-04-10T04:39:09.190Z,18.37
2018-04-10T04:39:42.473Z,17.15
2018-04-10T04:40:15.739Z,18.52
2018-04-10T04:40:49.032Z,17.58
2018-04-10T04:41:22.315Z,18.60
2018-04-10T04:41:55.588Z,16.90
2018-04-10T04:42:28.992Z,18.67
2018-04-10T04:43:02.267Z,18.95
2018-04-10T04:43:35.570Z,19.12
2018-04-10T04:44:08.840Z,17.58
2018-04-10T04:44:42.104Z,17.55
2018-04-10T04:45:15.387Z,17.05
2018-04-10T04:45:48.654Z,18.85
2018-04-10T04:46:21.923Z,17.42
2018-04-10T04:46:55.962Z,19.70
2018-04-10T04:47:29.261Z,18.98
2018-04-10T04:48:02.537Z,17.98
2018-04-10T04:48:35.812Z,18.95
2018-04-10T04:49:09.101Z,16.60
2018-04-10T04:49:42.374Z,16.65
2018-04-10T04:50:15.663Z,18.12
2018-04-10T04:50:48.942Z,19.05
2018-04-10T04:51:22.232Z,19.52
2018-04-10T04:51:55.512Z,19.85
2018-04-10T04:52:28.780Z,17.08
2018-04-10T04:53:02.073Z,17.60
2018-04-10T04:53:35.340Z,18.55
2018-04-10T04:54:08.611Z,19.02
2018-04-10T04:54:41.903Z,17.05
2018-04-10T04:55:15.168Z,17.20
2018-04-10T04:55:48.439Z,17.65
2018-04-10T04:56:21.716Z,17.62
2018-04-10T04:56:55.024Z,16.52
2018-04-10T04:57:28.318Z,18.27
2018-04-10T04:58:01.594Z,19.05
2018-04-10T04:58:34.867Z,18.25
2018-04-10T04:59:08.140Z,18.45
2018-04-10T04:59:42.161Z,18.25
2018-04-10T05:00:16.194Z,17.00
2018-04-10T05:00:49.480Z,18.10
2018-04-10T05:01:22.747Z,18.83
2018-04-10T05:01:56.802Z,19.23
2018-04-10T05:02:30.075Z,19.25
2018-04-10T05:03:03.355Z,18.42
2018-04-10T05:03:36.641Z,18.87
2018-04-10T05:04:09.927Z,17.80
2018-04-10T05:04:44.699Z,16.48
2018-04-10T05:05:17.976Z,18.02
2018-04-10T05:05:51.250Z,18.62
2018-04-10T05:06:24.540Z,17.35
2018-04-10T05:06:57.808Z,16.52
2018-04-10T05:07:31.083Z,17.12
2018-04-10T05:08:04.393Z,18.40
2018-04-10T05:08:37.661Z,17.48
2018-04-10T05:09:10.931Z,17.58
2018-04-10T05:09:44.213Z,17.35
2018-04-10T05:10:17.499Z,16.92
2018-04-10T05:10:50.776Z,15.02
2018-04-10T05:11:24.038Z,18.40
2018-04-10T05:11:57.310Z,17.30
2018-04-10T05:12:30.579Z,17.52
2018-04-10T05:13:04.616Z,17.55
2018-04-10T05:13:38.660Z,16.70
2018-04-10T05:14:11.940Z,16.55
2018-04-10T05:14:45.240Z,17.67
2018-04-10T05:15:19.301Z,16.50
2018-04-10T05:15:53.352Z,16.35
2018-04-10T05:16:27.376Z,16.92
2018-04-10T05:17:00.643Z,17.75
2018-04-10T05:17:33.904Z,17.20
2018-04-10T05:18:07.175Z,17.55
2018-04-10T05:18:40.483Z,16.90
2018-04-10T05:19:13.765Z,16.12
2018-04-10T05:19:47.044Z,16.17
2018-04-10T05:20:20.337Z,17.05
2018-04-10T05:20:53.599Z,16.15
2018-04-10T05:21:26.883Z,16.83
2018-04-10T05:22:00.151Z,15.93
2018-04-10T05:22:33.547Z,15.80
2018-04-10T05:23:06.936Z,16.02
2018-04-10T05:23:40.205Z,17.23
2018-04-10T05:24:13.501Z,16.02
2018-04-10T05:24:46.767Z,17.10
2018-04-10T05:25:20.051Z,16.20
2018-04-10T05:25:53.337Z,15.48
2018-04-10T05:26:26.616Z,16.33
2018-04-10T05:26:59.887Z,15.90
2018-04-10T05:27:33.147Z,16.50
2018-04-10T05:28:06.685Z,17.10
2018-04-10T05:28:39.973Z,17.23
2018-04-10T05:29:13.253Z,16.30
2018-04-10T05:29:46.523Z,16.10
2018-04-10T05:30:19.803Z,16.70
2018-04-10T05:30:53.085Z,18.10
2018-04-10T05:31:26.355Z,16.40
2018-04-10T05:31:59.640Z,15.73
2018-04-10T05:32:32.912Z,15.32
2018-04-10T05:33:06.182Z,16.40
2018-04-10T05:33:39.454Z,16.40
2018-04-10T05:34:12.782Z,16.42
2018-04-10T05:34:46.061Z,17.08
2018-04-10T05:35:19.330Z,16.83
2018-04-10T05:35:52.615Z,17.05
2018-04-10T05:36:25.898Z,15.82
2018-04-10T05:36:59.161Z,14.38
2018-04-10T05:37:32.461Z,15.73
2018-04-10T05:38:05.734Z,16.85
2018-04-10T05:38:39.011Z,15.57
2018-04-10T05:39:12.359Z,16.20
2018-04-10T05:39:45.669Z,14.73
2018-04-10T05:40:18.948Z,15.32
2018-04-10T05:40:52.220Z,16.48
2018-04-10T05:41:25.492Z,16.73
2018-04-10T05:41:58.756Z,17.45
2018-04-10T05:42:32.038Z,17.00
2018-04-10T05:43:05.322Z,17.30
2018-04-10T05:43:38.595Z,17.85
2018-04-10T05:44:11.871Z,16.40
2018-04-10T05:44:45.177Z,15.27
2018-04-10T05:45:18.448Z,16.73
2018-04-10T05:45:51.717Z,15.35
2018-04-10T05:46:24.980Z,15.35
2018-04-10T05:46:58.265Z,15.57
2018-04-10T05:47:31.527Z,16.20
2018-04-10T05:48:04.804Z,16.37
2018-04-10T05:48:38.841Z,15.27
2018-04-10T05:49:12.103Z,15.77
2018-04-10T05:49:45.396Z,17.08
2018-04-10T05:50:18.668Z,15.60
2018-04-10T05:50:51.948Z,15.98
2018-04-10T05:51:25.236Z,15.27
2018-04-10T05:51:58.515Z,16.92
2018-04-10T05:52:31.775Z,15.75
2018-04-10T05:53:05.040Z,14.55
2018-04-10T05:53:39.075Z,16.20
2018-04-10T05:54:12.444Z,15.40
2018-04-10T05:54:45.734Z,15.93
2018-04-10T05:55:19.021Z,15.98
2018-04-10T05:55:52.294Z,15.13
2018-04-10T05:56:25.569Z,14.57
2018-04-10T05:56:58.841Z,15.07
2018-04-10T05:57:32.120Z,15.52
2018-04-10T05:58:05.386Z,15.13
2018-04-10T05:58:38.666Z,14.48
2018-04-10T05:59:11.949Z,15.52
2018-04-10T05:59:45.244Z,15.00
2018-04-10T06:00:18.529Z,15.50
2018-04-10T06:00:51.796Z,13.70
2018-04-10T06:01:25.839Z,14.45
2018-04-10T06:01:59.204Z,15.02
2018-04-10T06:02:32.481Z,15.65
2018-04-10T06:03:05.776Z,15.43
2018-04-10T06:03:39.032Z,14.85
2018-04-10T06:04:12.341Z,15.38
2018-04-10T06:04:45.608Z,15.20
2018-04-10T06:05:18.892Z,15.77
2018-04-10T06:05:52.180Z,14.27
2018-04-10T06:06:26.213Z,14.30
2018-04-10T06:06:59.501Z,14.05
2018-04-10T06:07:32.829Z,13.93
2018-04-10T06:08:06.103Z,13.73
2018-04-10T06:08:39.376Z,15.05
2018-04-10T06:09:12.648Z,14.38
2018-04-10T06:09:45.920Z,14.07
2018-04-10T06:10:19.220Z,14.18
2018-04-10T06:10:52.490Z,14.05
2018-04-10T06:11:25.772Z,15.25
2018-04-10T06:11:59.053Z,15.48
2018-04-10T06:12:32.344Z,13.85
2018-04-10T06:13:05.603Z,14.68
2018-04-10T06:13:38.877Z,14.15
2018-04-10T06:14:12.152Z,14.23
2018-04-10T06:14:46.197Z,14.30
2018-04-10T06:15:19.487Z,13.40
2018-04-10T06:15:52.802Z,13.82
2018-04-10T06:16:26.059Z,15.60
2018-04-10T06:16:59.332Z,14.27
2018-04-10T06:17:32.671Z,15.02
2018-04-10T06:18:06.712Z,13.73
2018-04-10T06:18:39.971Z,12.95
2018-04-10T06:19:13.261Z,13.57
2018-04-10T06:19:46.555Z,13.35
2018-04-10T06:20:19.827Z,13.77
2018-04-10T06:20:53.099Z,16.35
2018-04-10T06:21:26.427Z,14.52
2018-04-10T06:21:59.664Z,13.40
2018-04-10T06:22:32.958Z,15.05
2018-04-10T06:23:06.220Z,16.05
2018-04-10T06:23:39.497Z,15.85
2018-04-10T06:24:12.757Z,13.82
2018-04-10T06:24:46.028Z,16.48
2018-04-10T06:25:19.329Z,17.08
2018-04-10T06:25:52.611Z,18.62
2018-04-10T06:26:25.880Z,17.20
2018-04-10T06:26:59.161Z,16.15
2018-04-10T06:27:32.415Z,15.27
2018-04-10T06:28:06.460Z,16.20
2018-04-10T06:28:39.737Z,16.00
2018-04-10T06:29:13.024Z,16.08
2018-04-10T06:29:46.288Z,15.60
2018-04-10T06:30:19.572Z,15.23
2018-04-10T06:30:52.864Z,14.80
2018-04-10T06:31:26.148Z,14.75
2018-04-10T06:31:59.407Z,15.50
2018-04-10T06:32:32.683Z,15.23
2018-04-10T06:33:05.969Z,14.73
2018-04-10T06:33:39.240Z,15.88
2018-04-10T06:34:12.516Z,14.50
2018-04-10T06:34:45.795Z,14.70
2018-04-10T06:35:19.088Z,14.65
2018-04-10T06:35:52.379Z,15.65
2018-04-10T06:36:25.658Z,15.00
2018-04-10T06:36:58.925Z,15.57
2018-04-10T06:37:32.188Z,15.20
2018-04-10T06:38:05.467Z,15.40
2018-04-10T06:38:38.735Z,15.15
2018-04-10T06:39:12.767Z,14.65
2018-04-10T06:39:46.046Z,13.50
2018-04-10T06:40:19.327Z,14.05
2018-04-10T06:40:52.603Z,13.88
2018-04-10T06:41:25.982Z,12.65
2018-04-10T06:41:59.257Z,13.38
2018-04-10T06:42:32.527Z,12.90
2018-04-10T06:43:05.792Z,13.10
2018-04-10T06:43:39.827Z,13.55
2018-04-10T06:44:13.100Z,14.20
2018-04-10T06:44:46.376Z,13.77
2018-04-10T06:45:19.646Z,13.75
2018-04-10T06:45:52.944Z,12.70
2018-04-10T06:46:26.232Z,12.30
2018-04-10T06:46:59.501Z,12.35
2018-04-10T06:47:32.782Z,13.70
2018-04-10T06:48:06.054Z,12.98
2018-04-10T06:48:39.324Z,13.13
2018-04-10T06:49:12.612Z,13.25
2018-04-10T06:49:45.888Z,13.50
2018-04-10T06:50:19.175Z,13.43
2018-04-10T06:50:52.459Z,13.00
2018-04-10T06:51:25.761Z,12.02
2018-04-10T06:51:59.774Z,13.48
2018-04-10T06:52:33.055Z,14.30
2018-04-10T06:53:06.312Z,13.10
2018-04-10T06:53:39.600Z,12.60
2018-04-10T06:54:12.876Z,13.62
2018-04-10T06:54:46.160Z,13.20
2018-04-10T06:55:19.428Z,13.00
2018-04-10T06:55:52.699Z,12.13
2018-04-10T06:56:25.986Z,12.52
2018-04-10T06:56:59.273Z,12.93
2018-04-10T06:57:32.548Z,13.10
2018-04-10T06:58:05.829Z,13.00
2018-04-10T06:58:39.104Z,11.68
2018-04-10T06:59:12.472Z,12.18
2018-04-10T06:59:45.759Z,12.48
2018-04-10T07:00:19.028Z,12.60
2018-04-10T07:00:52.296Z,13.32
2018-04-10T07:01:25.580Z,12.43
2018-04-10T07:01:59.613Z,11.77
2018-04-10T07:02:32.889Z,12.70
2018-04-10T07:03:06.168Z,12.23
2018-04-10T07:03:39.464Z,12.60
2018-04-10T07:04:13.500Z,12.15
2018-04-10T07:04:46.768Z,12.85
2018-04-10T07:05:20.060Z,12.07
2018-04-10T07:05:53.339Z,13.20
2018-04-10T07:06:26.646Z,12.90
2018-04-10T07:06:59.926Z,12.25
2018-04-10T07:07:33.211Z,12.05
2018-04-10T07:08:06.497Z,12.35
2018-04-10T07:08:39.771Z,12.10
2018-04-10T07:09:13.059Z,12.60
2018-04-10T07:09:46.344Z,12.45
2018-04-10T07:10:19.609Z,12.52
2018-04-10T07:10:52.899Z,12.50
2018-04-10T07:11:26.186Z,12.50
2018-04-10T07:11:59.474Z,12.35